• Join FlightAware (Why Join?)
  • Login
  • US Flag 
10:54PM EDT


 

Airport Tracker/Info


-or-


 

Live Flight TrackerFlight Track Log ✈ ASQ3818 ✈ 15-Nov-2013 ✈ KORF - KORD

Flight Track Log - Related Links

Times and Time Zones

All times are in EST time to prevent confusion due to time zone crossing. See the ASQ3818 flight status page for this flight to view local times or setup timezone preferences in your user account.

Time Position Orientation Groundspeed Altitude Reporting Facility
EST Latitude Longitude Course Direction KTS MPH feet Rate Location/Type
05:44PM 36.8678 -76.2331 229° Southwest 153 176 1,800  Level Washington Center
05:45PM 36.8383 -76.2822 233° Southwest 198 228 3,700 1,860 Climbing Washington Center
05:45PM 36.8381 -76.3239 270° West 240 276 4,600 1,860 Climbing Washington Center
05:46PM 36.8606 -76.3914 293° West 240 276 6,600 1,980 Climbing Washington Center
05:47PM 37.1442 -76.6854 279° West  Level Estimated
05:48PM 36.9072 -76.5633 289° West 251 289 10,700  Level Washington Center
05:49PM 36.9358 -76.6547 291° West 271 312 12,200 1,500 Climbing Washington Center
05:50PM 36.9619 -76.7539 288° West 288 331 13,700 1,560 Climbing Washington Center
05:51PM 36.9903 -76.8556 289° West 300 345 15,400 1,680 Climbing Washington Center
05:52PM 37.0183 -76.9575 289° West 307 353 17,200 1,620 Climbing Washington Center
05:53PM 37.0483 -77.0594 290° West 307 353 18,700 1,500 Climbing Washington Center
05:54PM 37.0678 -77.1667 283° West 307 353 20,200 1,380 Climbing Washington Center
05:55PM 37.0853 -77.2739 282° West 307 353 21,600 1,380 Climbing Washington Center
05:56PM 37.1044 -77.3808 283° West 312 359 23,000 1,200 Climbing Washington Center
05:57PM 37.1236 -77.4881 283° West 317 365 24,100 1,080 Climbing Washington Center
05:58PM 37.1428 -77.5928 283° West 317 365 25,200 1,200 Climbing Washington Center
05:59PM 37.1597 -77.7028 281° West 317 365 26,500 1,620 Climbing Washington Center
06:00PM 37.1808 -77.8025 285° West 311 358 28,500 1,920 Climbing Washington Center
06:01PM 37.2231 -77.8872 302° West 300 345 30,400 1,680 Climbing Washington Center
06:02PM 37.2675 -77.9642 306° West 285 328 32,000 1,500 Climbing Washington Center
06:03PM 37.3119 -78.0411 306° West 275 316 33,400 960 Climbing Washington Center
06:04PM 37.3542 -78.1131 306° West 270 311 34,000 300 Climbing Washington Center
06:05PM 37.3983 -78.1903 306° West 280 322 34,000  Level Washington Center
06:06PM 37.4506 -78.2839 305° West 306 352 34,000 300 Level Washington Center
06:07PM 37.5028 -78.3772 305° West 322 371 34,600 840 Climbing Washington Center
06:08PM 37.5647 -78.4869 305° West 342 394 35,700 660 Climbing Washington Center
06:09PM 37.6167 -78.5833 304° West 342 394 36,000 120 Climbing Washington Center
06:10PM 37.6725 -78.6853 305° West 342 394 36,000  Level Washington Center
06:11PM 37.7303 -78.7900 305° West 347 399 36,000  Level Washington Center
06:12PM 37.7839 -78.8869 305° West 366 421 36,000  Level Washington Center
06:13PM 37.8456 -78.9972 305° West 372 428 36,000  Level Washington Center
06:14PM 37.9047 -79.1078 304° West 377 434 36,000  Level Washington Center
06:15PM 37.9808 -79.2222 310° West 387 445 36,000  Level Washington Center
06:16PM 38.0464 -79.3256 309° West 387 445 36,000  Level Washington Center
06:17PM 38.1142 -79.4264 311° West 382 440 36,000  Level Washington Center
06:18PM 38.1736 -79.5194 309° West 382 440 36,000  Level Washington Center
06:19PM 38.2411 -79.6208 310° West 382 440 36,000  Level Washington Center
06:20PM 38.3086 -79.7222 310° West 382 440 36,000  Level Washington Center
06:21PM 38.3739 -79.8267 309° West 382 440 36,000  Level Washington Center
06:22PM 38.4511 -79.9425 310° West 382 440 36,000  Level Washington Center
06:23PM 38.5181 -80.0472 309° West 382 440 36,000  Level Washington Center
06:24PM 38.5869 -80.1550 309° West 387 445 36,000  Level Washington Center
06:25PM 38.6456 -80.2397 312° West 393 452 36,000  Level Indianapolis Center
06:26PM 38.7153 -80.3469 310° West 391 450 36,000  Level Indianapolis Center
06:27PM 38.7847 -80.4558 309° West 395 455 36,000  Level Indianapolis Center
06:28PM 38.8539 -80.5628 310° West 391 450 36,000  Level Indianapolis Center
06:29PM 38.9356 -80.6925 309° West 392 451 36,000  Level Indianapolis Center
06:30PM 39.0056 -80.7986 310° West 390 449 36,000  Level Indianapolis Center
06:31PM 39.0758 -80.9047 310° West 390 449 36,000  Level Indianapolis Center
06:32PM 39.1450 -81.0100 310° West 387 445 36,000  Level Indianapolis Center
06:33PM 39.2150 -81.1133 311° West 385 443 36,000  Level Indianapolis Center
06:34PM 39.2861 -81.2186 311° West 389 448 36,000  Level Indianapolis Center
06:35PM 39.3703 -81.3478 310° West 392 451 36,000  Level Indianapolis Center
06:36PM 39.4419 -81.4567 310° West 397 457 36,000  Level Indianapolis Center
06:37PM 39.5133 -81.5658 310° West 398 458 36,000  Level Indianapolis Center
06:38PM 39.5850 -81.6742 311° West 396 456 36,000  Level Indianapolis Center
06:39PM 39.6572 -81.7828 311° West 396 456 36,000  Level Indianapolis Center
06:41PM 39.7181 -81.9136 301° West 379 436 36,000  Level Indianapolis Center
06:42PM 39.7667 -82.0331 298° West 376 433 36,000  Level Indianapolis Center
06:43PM 39.8144 -82.1514 298° West 372 428 36,000  Level Indianapolis Center
06:44PM 39.8639 -82.2725 298° West 378 435 36,000  Level Indianapolis Center
06:45PM 39.9211 -82.4175 297° West 377 434 36,000  Level Indianapolis Center
06:46PM 39.9700 -82.5383 298° West 378 435 36,000  Level Indianapolis Center
06:47PM 40.0192 -82.6617 298° West 384 442 36,000  Level Indianapolis Center
06:48PM 40.0675 -82.7842 297° West 383 441 36,000  Level Indianapolis Center
06:49PM 40.1158 -82.9075 297° West 384 442 36,000  Level Indianapolis Center
06:50PM 40.1650 -83.0319 297° West 388 447 36,000  Level Indianapolis Center
06:51PM 40.2228 -83.1800 297° West 386 444 36,000  Level Indianapolis Center
06:52PM 40.2706 -83.3044 297° West 387 445 36,000 -300 Level Indianapolis Center
06:53PM 40.3197 -83.4303 297° West 390 449 35,400 -900 Descending Indianapolis Center
06:54PM 40.3681 -83.5569 297° West 393 452 34,200 -480 Descending Indianapolis Center
06:56PM 40.4800 -83.8447 297° West 408 470 34,000 -120 Descending Indianapolis Center
06:57PM 40.5303 -83.9797 296° West 412 474 34,000  Level Indianapolis Center
06:58PM 40.5817 -84.1117 297° West 409 471 34,000  Level Indianapolis Center
06:59PM 40.6303 -84.2439 296° West 405 466 34,000  Level Indianapolis Center
07:00PM 40.6797 -84.3753 296° West 403 464 34,000  Level Indianapolis Center
07:01PM 40.7286 -84.5072 296° West 401 461 34,000  Level Indianapolis Center
07:02PM 40.7878 -84.6675 296° West 406 467 34,000  Level Indianapolis Center
07:03PM 40.8361 -84.7992 296° West 403 464 34,000  Level Indianapolis Center
07:04PM 40.8925 -84.9439 297° West 401 461 34,000  Level Chicago Center
07:05PM 40.9400 -85.0767 295° West 399 459 34,000 -360 Level Chicago Center
07:06PM 40.9889 -85.2097 296° West 400 460 33,300 -840 Descending Chicago Center
07:07PM 41.0372 -85.3458 295° West 404 465 32,300 -1,080 Descending Chicago Center
07:08PM 41.0856 -85.4806 295° West 405 466 31,100 -1,560 Descending Chicago Center
07:09PM 41.1339 -85.6133 296° West 399 459 29,100 -1,800 Descending Chicago Center
07:11PM 41.1786 -85.7419 295° West 386 444 27,400 -2,040 Descending Chicago Center
07:12PM 41.2322 -85.8925 295° West 377 434 25,000 -1,200 Descending Chicago Center
07:13PM 41.2769 -86.0172 296° West 373 429 25,000 -300 Level Chicago Center
07:14PM 41.3078 -86.1556 287° West 398 458 24,400 -1,020 Descending Chicago Center
07:15PM 41.3742 -86.2789 306° West 408 470 23,000 -2,040 Descending Chicago Center
07:16PM 41.4408 -86.3975 307° West 402 463 20,300 -2,700 Descending Chicago Center
07:17PM 41.5039 -86.5139 306° West 390 449 17,400 -3,120 Descending Chicago Center
07:18PM 41.5781 -86.6492 306° West 378 435 13,800 -2,580 Descending Chicago Center
07:19PM 41.6361 -86.7542 307° West 359 413 12,100 -840 Descending Chicago Center
07:20PM 41.7233 -86.8006 338° Northwest 355 409 12,100  Level Chicago Center
07:21PM 41.8214 -86.8206 351° North 356 410 12,100 -300 Level Chicago Center
07:22PM 41.8933 -86.8856 326° Northwest 337 388 11,500 -1,020 Descending Chicago Center
07:23PM 41.9464 -87.0158 299° West 331 381 10,100 -1,440 Descending Chicago Center
07:24PM 41.9819 -87.1031 299° West 280 322 8,600 -1,500 Descending Chicago Center
07:25PM 41.9814 -87.1964 270° West 256 295 7,000 -780 Descending Chicago Center
07:26PM 41.9825 -87.2917 271° West 254 292 7,000  Level Chicago Center
07:27PM 41.9831 -87.3722 271° West 222 255 7,000 -60 Level Chicago Center
07:28PM 41.9822 -87.4614 269° West 201 231 6,900 -540 Descending Chicago Center
07:29PM 41.9833 -87.5378 271° West 204 235 6,000 -1,080 Descending Chicago Center
07:30PM 41.9831 -87.6153 270° West 207 238 4,700 -1,200 Descending Chicago Center
07:31PM 41.9833 -87.6667 270° West 193 222 3,900 -1,080 Descending Chicago TRACON
07:32PM 41.9833 -87.7333 270° West 166 191 2,900 -900 Descending Chicago TRACON
07:33PM 41.9833 -87.8000 270° West 154 177 2,100 -780 Descending Chicago TRACON
07:34PM 41.9833 -87.8333 270° West 124 143 1,400 -720 Descending Chicago TRACON